sensor_id;sensor_type;location;lat;lon;timestamp;pressure;altitude;pressure_sealevel;temperature;humidity
39681;BME280;26327;42.550;23.120;2022-12-07T00:00:28;92755.59;;;7.40;100.00
39681;BME280;26327;42.550;23.120;2022-12-07T00:02:53;92742.19;;;7.28;100.00
39681;BME280;26327;42.550;23.120;2022-12-07T00:05:18;92690.03;;;7.00;100.00
39681;BME280;26327;42.550;23.120;2022-12-07T00:07:44;92679.91;;;6.82;100.00
39681;BME280;26327;42.550;23.120;2022-12-07T00:10:09;92743.00;;;7.20;100.00
39681;BME280;26327;42.550;23.120;2022-12-07T00:12:35;92731.72;;;7.13;100.00
39681;BME280;26327;42.550;23.120;2022-12-07T00:15:00;92712.00;;;7.04;100.00
39681;BME280;26327;42.550;23.120;2022-12-07T00:17:25;92698.94;;;6.89;100.00
39681;BME280;26327;42.550;23.120;2022-12-07T00:19:51;92751.22;;;7.32;100.00
39681;BME280;26327;42.550;23.120;2022-12-07T00:22:16;92745.56;;;7.37;100.00
39681;BME280;26327;42.550;23.120;2022-12-07T00:24:41;92677.78;;;6.94;100.00
39681;BME280;26327;42.550;23.120;2022-12-07T00:27:07;92727.81;;;7.25;100.00
39681;BME280;26327;42.550;23.120;2022-12-07T00:29:32;92738.00;;;7.27;100.00
39681;BME280;26327;42.550;23.120;2022-12-07T00:31:58;92725.41;;;7.24;100.00
39681;BME280;26327;42.550;23.120;2022-12-07T00:34:23;92662.94;;;6.88;100.00
39681;BME280;26327;42.550;23.120;2022-12-07T00:36:48;92722.66;;;7.34;100.00
39681;BME280;26327;42.550;23.120;2022-12-07T00:39:14;92723.94;;;7.30;100.00
39681;BME280;26327;42.550;23.120;2022-12-07T00:41:40;92680.69;;;6.91;100.00
39681;BME280;26327;42.550;23.120;2022-12-07T00:44:05;92593.91;;;6.17;100.00
39681;BME280;26327;42.550;23.120;2022-12-07T00:46:31;92733.66;;;7.19;100.00
39681;BME280;26327;42.550;23.120;2022-12-07T00:48:57;92710.41;;;6.87;100.00
39681;BME280;26327;42.550;23.120;2022-12-07T00:51:23;92733.97;;;7.16;100.00
39681;BME280;26327;42.550;23.120;2022-12-07T00:53:50;92659.06;;;6.84;100.00
39681;BME280;26327;42.550;23.120;2022-12-07T00:56:26;92677.78;;;7.02;100.00
39681;BME280;26327;42.550;23.120;2022-12-07T00:58:54;92714.13;;;7.17;100.00
39681;BME280;26327;42.550;23.120;2022-12-07T01:01:21;92660.84;;;6.75;100.00
39681;BME280;26327;42.550;23.120;2022-12-07T01:03:46;92703.78;;;7.17;100.00
39681;BME280;26327;42.550;23.120;2022-12-07T01:06:17;92732.63;;;7.45;100.00
39681;BME280;26327;42.550;23.120;2022-12-07T01:08:43;92665.66;;;7.19;100.00
39681;BME280;26327;42.550;23.120;2022-12-07T01:11:12;92657.28;;;7.01;100.00
39681;BME280;26327;42.550;23.120;2022-12-07T01:13:37;92726.19;;;7.41;100.00
39681;BME280;26327;42.550;23.120;2022-12-07T01:16:04;92598.91;;;6.67;100.00
39681;BME280;26327;42.550;23.120;2022-12-07T01:18:32;92708.44;;;7.21;100.00
39681;BME280;26327;42.550;23.120;2022-12-07T01:23:30;92726.31;;;7.47;100.00
39681;BME280;26327;42.550;23.120;2022-12-07T01:25:57;92721.16;;;7.47;100.00
39681;BME280;26327;42.550;23.120;2022-12-07T01:28:24;92713.25;;;7.41;100.00
39681;BME280;26327;42.550;23.120;2022-12-07T01:31:01;92708.22;;;7.47;100.00
39681;BME280;26327;42.550;23.120;2022-12-07T01:33:29;92638.69;;;7.05;100.00
39681;BME280;26327;42.550;23.120;2022-12-07T01:36:04;92639.34;;;6.99;100.00
39681;BME280;26327;42.550;23.120;2022-12-07T01:38:30;92706.16;;;7.43;100.00
39681;BME280;26327;42.550;23.120;2022-12-07T01:40:56;92666.13;;;7.31;100.00
39681;BME280;26327;42.550;23.120;2022-12-07T01:43:24;92697.56;;;7.50;100.00
39681;BME280;26327;42.550;23.120;2022-12-07T01:45:50;92705.31;;;7.58;100.00
39681;BME280;26327;42.550;23.120;2022-12-07T01:48:19;92615.28;;;7.07;100.00
39681;BME280;26327;42.550;23.120;2022-12-07T01:50:48;92623.84;;;7.15;100.00
39681;BME280;26327;42.550;23.120;2022-12-07T01:53:16;92682.06;;;7.50;100.00
39681;BME280;26327;42.550;23.120;2022-12-07T01:55:44;92622.38;;;7.05;100.00
39681;BME280;26327;42.550;23.120;2022-12-07T01:58:12;92687.56;;;7.47;100.00
39681;BME280;26327;42.550;23.120;2022-12-07T02:00:38;92620.13;;;7.02;100.00
39681;BME280;26327;42.550;23.120;2022-12-07T02:03:26;92687.56;;;7.39;100.00
39681;BME280;26327;42.550;23.120;2022-12-07T02:05:53;92639.84;;;7.03;100.00
39681;BME280;26327;42.550;23.120;2022-12-07T02:08:19;92677.63;;;7.12;100.00
39681;BME280;26327;42.550;23.120;2022-12-07T02:10:45;92685.19;;;7.05;100.00
39681;BME280;26327;42.550;23.120;2022-12-07T02:13:16;92620.03;;;6.46;100.00
39681;BME280;26327;42.550;23.120;2022-12-07T02:26:45;92680.81;;;7.30;100.00
39681;BME280;26327;42.550;23.120;2022-12-07T02:32:06;92676.47;;;7.22;100.00
39681;BME280;26327;42.550;23.120;2022-12-07T02:34:50;92651.94;;;7.18;100.00
39681;BME280;26327;42.550;23.120;2022-12-07T02:37:34;92600.50;;;6.76;100.00
39681;BME280;26327;42.550;23.120;2022-12-07T02:40:15;92595.47;;;6.83;100.00
39681;BME280;26327;42.550;23.120;2022-12-07T02:42:48;92665.50;;;7.20;100.00
39681;BME280;26327;42.550;23.120;2022-12-07T02:45:18;92658.41;;;6.98;100.00
39681;BME280;26327;42.550;23.120;2022-12-07T02:47:46;92663.91;;;7.11;100.00
39681;BME280;26327;42.550;23.120;2022-12-07T02:50:14;92645.84;;;6.79;100.00
39681;BME280;26327;42.550;23.120;2022-12-07T02:52:40;92583.56;;;6.74;100.00
39681;BME280;26327;42.550;23.120;2022-12-07T02:55:06;92585.19;;;6.75;100.00
39681;BME280;26327;42.550;23.120;2022-12-07T03:00:07;92659.97;;;7.32;100.00
39681;BME280;26327;42.550;23.120;2022-12-07T03:08:50;92645.47;;;7.22;100.00
39681;BME280;26327;42.550;23.120;2022-12-07T03:11:27;92634.34;;;7.06;100.00
39681;BME280;26327;42.550;23.120;2022-12-07T03:14:02;92647.72;;;7.25;100.00
39681;BME280;26327;42.550;23.120;2022-12-07T03:16:45;92645.31;;;7.16;100.00
39681;BME280;26327;42.550;23.120;2022-12-07T03:19:19;92577.41;;;6.83;100.00
39681;BME280;26327;42.550;23.120;2022-12-07T03:21:51;92576.78;;;6.81;100.00
39681;BME280;26327;42.550;23.120;2022-12-07T03:24:21;92644.19;;;7.18;100.00
39681;BME280;26327;42.550;23.120;2022-12-07T03:26:56;92595.47;;;6.83;100.00
39681;BME280;26327;42.550;23.120;2022-12-07T03:29:31;92651.47;;;6.90;100.00
39681;BME280;26327;42.550;23.120;2022-12-07T03:32:04;92639.50;;;7.06;100.00
39681;BME280;26327;42.550;23.120;2022-12-07T03:34:45;92639.03;;;7.02;100.00
39681;BME280;26327;42.550;23.120;2022-12-07T03:37:18;92614.84;;;6.87;100.00
39681;BME280;26327;42.550;23.120;2022-12-07T03:39:57;92636.59;;;7.09;100.00
39681;BME280;26327;42.550;23.120;2022-12-07T03:42:25;92636.13;;;7.13;100.00
39681;BME280;26327;42.550;23.120;2022-12-07T03:44:50;92577.25;;;6.60;100.00
39681;BME280;26327;42.550;23.120;2022-12-07T03:47:26;92644.84;;;7.12;100.00
39681;BME280;26327;42.550;23.120;2022-12-07T03:50:06;92645.00;;;7.19;100.00
39681;BME280;26327;42.550;23.120;2022-12-07T03:52:40;92580.31;;;6.80;100.00
39681;BME280;26327;42.550;23.120;2022-12-07T03:55:20;92642.44;;;7.11;100.00
39681;BME280;26327;42.550;23.120;2022-12-07T03:57:50;92634.69;;;7.11;100.00
39681;BME280;26327;42.550;23.120;2022-12-07T04:00:18;92629.00;;;7.07;100.00
39681;BME280;26327;42.550;23.120;2022-12-07T04:02:43;92624.84;;;6.82;100.00
39681;BME280;26327;42.550;23.120;2022-12-07T04:05:10;92584.22;;;6.51;100.00
39681;BME280;26327;42.550;23.120;2022-12-07T04:07:35;92641.44;;;7.04;100.00
39681;BME280;26327;42.550;23.120;2022-12-07T04:10:01;92636.66;;;6.76;100.00
39681;BME280;26327;42.550;23.120;2022-12-07T04:12:26;92645.22;;;6.69;100.00
39681;BME280;26327;42.550;23.120;2022-12-07T04:14:52;92585.34;;;6.32;100.00
39681;BME280;26327;42.550;23.120;2022-12-07T04:17:17;92644.88;;;6.39;100.00
39681;BME280;26327;42.550;23.120;2022-12-07T04:19:43;92636.47;;;6.45;100.00
39681;BME280;26327;42.550;23.120;2022-12-07T04:22:08;92655.03;;;6.41;100.00
39681;BME280;26327;42.550;23.120;2022-12-07T04:24:34;92647.13;;;6.42;100.00
39681;BME280;26327;42.550;23.120;2022-12-07T04:27:00;92651.47;;;6.58;100.00
39681;BME280;26327;42.550;23.120;2022-12-07T04:29:26;92651.34;;;6.76;100.00
39681;BME280;26327;42.550;23.120;2022-12-07T04:31:52;92661.19;;;6.80;100.00
39681;BME280;26327;42.550;23.120;2022-12-07T04:34:17;92651.50;;;6.82;100.00
39681;BME280;26327;42.550;23.120;2022-12-07T04:36:44;92591.16;;;6.18;100.00
39681;BME280;26327;42.550;23.120;2022-12-07T04:39:27;92519.84;;;5.85;100.00
39681;BME280;26327;42.550;23.120;2022-12-07T04:41:53;92651.47;;;6.58;100.00
39681;BME280;26327;42.550;23.120;2022-12-07T04:44:20;92591.47;;;6.31;100.00
39681;BME280;26327;42.550;23.120;2022-12-07T04:46:46;92591.31;;;6.41;100.00
39681;BME280;26327;42.550;23.120;2022-12-07T04:49:12;92662.78;;;6.81;100.00
39681;BME280;26327;42.550;23.120;2022-12-07T04:51:38;92629.69;;;6.44;100.00
39681;BME280;26327;42.550;23.120;2022-12-07T04:54:04;92650.34;;;6.44;100.00
39681;BME280;26327;42.550;23.120;2022-12-07T04:56:29;92640.81;;;6.61;100.00
39681;BME280;26327;42.550;23.120;2022-12-07T04:58:55;92576.66;;;6.25;100.00
39681;BME280;26327;42.550;23.120;2022-12-07T05:01:22;92584.22;;;6.43;100.00
39681;BME280;26327;42.550;23.120;2022-12-07T05:03:48;92634.56;;;6.72;100.00
39681;BME280;26327;42.550;23.120;2022-12-07T05:06:14;92647.13;;;6.75;100.00
39681;BME280;26327;42.550;23.120;2022-12-07T05:08:40;92654.41;;;6.79;100.00
39681;BME280;26327;42.550;23.120;2022-12-07T05:11:07;92583.09;;;6.38;100.00
39681;BME280;26327;42.550;23.120;2022-12-07T05:13:33;92654.72;;;6.84;100.00
39681;BME280;26327;42.550;23.120;2022-12-07T05:15:59;92586.81;;;6.43;100.00
39681;BME280;26327;42.550;23.120;2022-12-07T05:18:24;92642.59;;;6.85;100.00
39681;BME280;26327;42.550;23.120;2022-12-07T05:20:50;92648.09;;;6.90;100.00
39681;BME280;26327;42.550;23.120;2022-12-07T05:23:16;92588.72;;;6.57;100.00
39681;BME280;26327;42.550;23.120;2022-12-07T05:25:42;92585.03;;;6.44;100.00
39681;BME280;26327;42.550;23.120;2022-12-07T05:28:07;92635.19;;;6.82;100.00
39681;BME280;26327;42.550;23.120;2022-12-07T05:30:33;92631.94;;;6.88;100.00
39681;BME280;26327;42.550;23.120;2022-12-07T05:32:58;92634.66;;;7.03;100.00
39681;BME280;26327;42.550;23.120;2022-12-07T05:35:24;92594.69;;;6.50;100.00
39681;BME280;26327;42.550;23.120;2022-12-07T05:37:49;92587.44;;;6.53;100.00
39681;BME280;26327;42.550;23.120;2022-12-07T05:40:15;92632.78;;;6.80;100.00
39681;BME280;26327;42.550;23.120;2022-12-07T05:42:41;92641.81;;;6.84;100.00
39681;BME280;26327;42.550;23.120;2022-12-07T05:45:08;92638.09;;;6.79;100.00
39681;BME280;26327;42.550;23.120;2022-12-07T05:47:34;92564.53;;;6.10;100.00
39681;BME280;26327;42.550;23.120;2022-12-07T05:49:59;92651.31;;;6.51;100.00
39681;BME280;26327;42.550;23.120;2022-12-07T05:52:25;92640.03;;;6.69;100.00
39681;BME280;26327;42.550;23.120;2022-12-07T05:54:51;92626.78;;;6.55;100.00
39681;BME280;26327;42.550;23.120;2022-12-07T05:57:16;92571.31;;;6.19;100.00
39681;BME280;26327;42.550;23.120;2022-12-07T05:59:42;92578.59;;;6.23;100.00
39681;BME280;26327;42.550;23.120;2022-12-07T06:02:10;92566.16;;;6.27;100.00
39681;BME280;26327;42.550;23.120;2022-12-07T06:04:41;92562.31;;;6.23;100.00
39681;BME280;26327;42.550;23.120;2022-12-07T06:07:07;92586.81;;;6.43;100.00
39681;BME280;26327;42.550;23.120;2022-12-07T06:09:33;92640.03;;;6.85;100.00
39681;BME280;26327;42.550;23.120;2022-12-07T06:11:59;92583.72;;;6.56;100.00
39681;BME280;26327;42.550;23.120;2022-12-07T06:14:44;92583.56;;;6.74;100.00
39681;BME280;26327;42.550;23.120;2022-12-07T06:17:10;92616.75;;;7.01;100.00
39681;BME280;26327;42.550;23.120;2022-12-07T06:19:36;92630.28;;;7.19;100.00
39681;BME280;26327;42.550;23.120;2022-12-07T06:22:01;92630.28;;;7.19;100.00
39681;BME280;26327;42.550;23.120;2022-12-07T06:24:27;92568.84;;;6.82;100.00
39681;BME280;26327;42.550;23.120;2022-12-07T06:26:54;92575.94;;;6.88;100.00
39681;BME280;26327;42.550;23.120;2022-12-07T06:29:19;92635.94;;;7.23;100.00
39681;BME280;26327;42.550;23.120;2022-12-07T06:31:45;92515.16;;;6.61;100.00
39681;BME280;26327;42.550;23.120;2022-12-07T06:34:13;92634.59;;;7.35;100.00
39681;BME280;26327;42.550;23.120;2022-12-07T06:36:39;92568.00;;;6.98;100.00
39681;BME280;26327;42.550;23.120;2022-12-07T06:39:05;92646.56;;;7.36;100.00
39681;BME280;26327;42.550;23.120;2022-12-07T06:41:31;92642.16;;;7.45;100.00
39681;BME280;26327;42.550;23.120;2022-12-07T06:43:56;92638.31;;;7.41;100.00
39681;BME280;26327;42.550;23.120;2022-12-07T06:46:23;92579.28;;;7.05;100.00
39681;BME280;26327;42.550;23.120;2022-12-07T06:48:48;92526.75;;;6.74;100.00
39681;BME280;26327;42.550;23.120;2022-12-07T06:51:14;92627.78;;;7.42;100.00
39681;BME280;26327;42.550;23.120;2022-12-07T06:53:40;92656.00;;;7.68;100.00
39681;BME280;26327;42.550;23.120;2022-12-07T06:56:05;92653.22;;;7.78;100.00
39681;BME280;26327;42.550;23.120;2022-12-07T06:58:31;92584.22;;;7.31;100.00
39681;BME280;26327;42.550;23.120;2022-12-07T07:00:56;92658.75;;;7.67;100.00
39681;BME280;26327;42.550;23.120;2022-12-07T07:03:22;92652.13;;;7.64;100.00
39681;BME280;26327;42.550;23.120;2022-12-07T07:05:47;92601.66;;;7.37;100.00
39681;BME280;26327;42.550;23.120;2022-12-07T07:08:13;92647.78;;;7.65;100.00
39681;BME280;26327;42.550;23.120;2022-12-07T07:10:39;92652.44;;;7.69;100.00
39681;BME280;26327;42.550;23.120;2022-12-07T07:13:05;92615.69;;;7.43;100.00
39681;BME280;26327;42.550;23.120;2022-12-07T07:15:31;92635.19;;;7.62;100.00
39681;BME280;26327;42.550;23.120;2022-12-07T07:17:56;92653.84;;;7.80;100.00
39681;BME280;26327;42.550;23.120;2022-12-07T07:20:22;92639.56;;;7.92;100.00
39681;BME280;26327;42.550;23.120;2022-12-07T07:22:48;92608.56;;;7.84;100.00
39681;BME280;26327;42.550;23.120;2022-12-07T07:25:14;92642.16;;;7.92;100.00
39681;BME280;26327;42.550;23.120;2022-12-07T07:27:40;92576.34;;;7.24;100.00
39681;BME280;26327;42.550;23.120;2022-12-07T07:30:06;92641.84;;;7.87;100.00
39681;BME280;26327;42.550;23.120;2022-12-07T07:32:31;92638.75;;;7.92;100.00
39681;BME280;26327;42.550;23.120;2022-12-07T07:34:57;92638.09;;;7.58;100.00
39681;BME280;26327;42.550;23.120;2022-12-07T07:37:23;92626.13;;;7.66;100.00
39681;BME280;26327;42.550;23.120;2022-12-07T07:39:48;92530.78;;;6.76;100.00
39681;BME280;26327;42.550;23.120;2022-12-07T07:42:14;92655.69;;;7.63;100.00
39681;BME280;26327;42.550;23.120;2022-12-07T07:44:39;92653.88;;;8.11;100.00
39681;BME280;26327;42.550;23.120;2022-12-07T07:47:05;92593.31;;;8.20;100.00
39681;BME280;26327;42.550;23.120;2022-12-07T07:49:30;92647.53;;;8.44;100.00
39681;BME280;26327;42.550;23.120;2022-12-07T07:51:56;92648.53;;;8.66;100.00
39681;BME280;26327;42.550;23.120;2022-12-07T07:54:21;92651.34;;;8.79;100.00
39681;BME280;26327;42.550;23.120;2022-12-07T07:56:46;92664.22;;;9.25;100.00
39681;BME280;26327;42.550;23.120;2022-12-07T07:59:12;92664.66;;;9.14;100.00
39681;BME280;26327;42.550;23.120;2022-12-07T08:01:37;92648.41;;;8.97;100.00
39681;BME280;26327;42.550;23.120;2022-12-07T08:04:03;92658.13;;;9.03;100.00
39681;BME280;26327;42.550;23.120;2022-12-07T08:06:28;92606.63;;;8.63;100.00
39681;BME280;26327;42.550;23.120;2022-12-07T08:08:53;92573.06;;;8.01;100.00
39681;BME280;26327;42.550;23.120;2022-12-07T08:11:19;92648.31;;;8.53;100.00
39681;BME280;26327;42.550;23.120;2022-12-07T08:13:45;92647.66;;;8.51;100.00
39681;BME280;26327;42.550;23.120;2022-12-07T08:16:12;92653.28;;;9.00;100.00
39681;BME280;26327;42.550;23.120;2022-12-07T08:18:39;92649.31;;;8.90;100.00
39681;BME280;26327;42.550;23.120;2022-12-07T08:21:06;92585.50;;;8.89;100.00
39681;BME280;26327;42.550;23.120;2022-12-07T08:23:33;92585.66;;;9.10;100.00
39681;BME280;26327;42.550;23.120;2022-12-07T08:26:13;92651.53;;;9.45;100.00
39681;BME280;26327;42.550;23.120;2022-12-07T08:28:39;92650.84;;;9.66;100.00
39681;BME280;26327;42.550;23.120;2022-12-07T08:31:10;92639.47;;;9.67;99.05
39681;BME280;26327;42.550;23.120;2022-12-07T08:33:36;92662.47;;;9.70;98.58
39681;BME280;26327;42.550;23.120;2022-12-07T08:36:06;92660.66;;;9.41;100.00
39681;BME280;26327;42.550;23.120;2022-12-07T08:38:34;92588.06;;;9.11;100.00
39681;BME280;26327;42.550;23.120;2022-12-07T08:40:59;92643.69;;;9.68;99.81
39681;BME280;26327;42.550;23.120;2022-12-07T08:43:25;92633.03;;;8.81;100.00
39681;BME280;26327;42.550;23.120;2022-12-07T08:48:36;92645.81;;;9.35;100.00
39681;BME280;26327;42.550;23.120;2022-12-07T08:51:03;92636.50;;;9.11;100.00
39681;BME280;26327;42.550;23.120;2022-12-07T08:53:29;92634.53;;;9.28;100.00
39681;BME280;26327;42.550;23.120;2022-12-07T08:55:56;92632.94;;;9.27;100.00
39681;BME280;26327;42.550;23.120;2022-12-07T08:58:22;92564.97;;;8.87;100.00
39681;BME280;26327;42.550;23.120;2022-12-07T09:00:48;92599.91;;;9.79;98.58
39681;BME280;26327;42.550;23.120;2022-12-07T09:03:13;92568.34;;;9.76;98.36
39681;BME280;26327;42.550;23.120;2022-12-07T09:05:38;92629.56;;;10.57;94.70
39681;BME280;26327;42.550;23.120;2022-12-07T09:08:04;92561.06;;;9.86;96.21
39681;BME280;26327;42.550;23.120;2022-12-07T09:10:30;92568.13;;;10.28;94.49
39681;BME280;26327;42.550;23.120;2022-12-07T09:12:56;92622.47;;;9.94;97.54
39681;BME280;26327;42.550;23.120;2022-12-07T09:15:26;92616.09;;;9.82;98.66
39681;BME280;26327;42.550;23.120;2022-12-07T09:17:52;92606.63;;;9.89;98.78
39681;BME280;26327;42.550;23.120;2022-12-07T09:20:18;92612.38;;;10.56;95.62
39681;BME280;26327;42.550;23.120;2022-12-07T09:22:43;92623.56;;;10.99;92.88
39681;BME280;26327;42.550;23.120;2022-12-07T09:25:08;92608.75;;;10.79;92.79
39681;BME280;26327;42.550;23.120;2022-12-07T09:27:34;92591.66;;;11.47;89.31
39681;BME280;26327;42.550;23.120;2022-12-07T09:29:59;92599.66;;;11.80;87.58
39681;BME280;26327;42.550;23.120;2022-12-07T09:32:25;92596.34;;;11.58;87.55
39681;BME280;26327;42.550;23.120;2022-12-07T09:34:50;92545.00;;;11.80;84.81
39681;BME280;26327;42.550;23.120;2022-12-07T09:37:15;92592.69;;;12.54;83.18
39681;BME280;26327;42.550;23.120;2022-12-07T09:39:41;92590.94;;;13.08;81.01
39681;BME280;26327;42.550;23.120;2022-12-07T09:42:07;92576.03;;;12.36;85.66
39681;BME280;26327;42.550;23.120;2022-12-07T09:44:34;92511.91;;;12.48;82.62
39681;BME280;26327;42.550;23.120;2022-12-07T09:47:00;92563.66;;;12.97;82.15
39681;BME280;26327;42.550;23.120;2022-12-07T09:49:31;92581.78;;;12.11;83.71
39681;BME280;26327;42.550;23.120;2022-12-07T09:54:35;92565.03;;;11.79;82.55
39681;BME280;26327;42.550;23.120;2022-12-07T09:57:01;92576.31;;;12.87;80.79
39681;BME280;26327;42.550;23.120;2022-12-07T09:59:27;92565.56;;;13.81;76.54
39681;BME280;26327;42.550;23.120;2022-12-07T10:01:52;92564.28;;;13.32;75.48
39681;BME280;26327;42.550;23.120;2022-12-07T10:04:20;92519.94;;;12.53;77.89
39681;BME280;26327;42.550;23.120;2022-12-07T10:06:47;92562.16;;;16.18;66.09
39681;BME280;26327;42.550;23.120;2022-12-07T10:09:15;92553.56;;;15.06;68.12
39681;BME280;26327;42.550;23.120;2022-12-07T10:14:33;92494.69;;;15.22;64.86
39681;BME280;26327;42.550;23.120;2022-12-07T10:17:00;92512.91;;;12.67;76.07
39681;BME280;26327;42.550;23.120;2022-12-07T10:19:28;92558.88;;;11.87;82.65
39681;BME280;26327;42.550;23.120;2022-12-07T10:22:13;92561.97;;;11.76;83.88
39681;BME280;26327;42.550;23.120;2022-12-07T10:24:41;92532.44;;;11.49;84.71
39681;BME280;26327;42.550;23.120;2022-12-07T10:27:17;92558.81;;;11.39;86.89
39681;BME280;26327;42.550;23.120;2022-12-07T10:29:48;92559.78;;;11.03;85.74
39681;BME280;26327;42.550;23.120;2022-12-07T10:34:40;92479.31;;;9.54;94.70
39681;BME280;26327;42.550;23.120;2022-12-07T10:45:06;92527.13;;;11.29;87.43
39681;BME280;26327;42.550;23.120;2022-12-07T10:47:36;92528.75;;;10.95;87.87
39681;BME280;26327;42.550;23.120;2022-12-07T11:00:23;92432.81;;;15.94;61.71
39681;BME280;26327;42.550;23.120;2022-12-07T11:03:23;92522.16;;;13.80;70.74
39681;BME280;26327;42.550;23.120;2022-12-07T11:11:16;92496.72;;;15.38;63.79
39681;BME280;26327;42.550;23.120;2022-12-07T11:13:56;92477.47;;;13.57;70.53
39681;BME280;26327;42.550;23.120;2022-12-07T11:19:11;92487.66;;;16.67;60.09
39681;BME280;26327;42.550;23.120;2022-12-07T11:21:44;92487.97;;;16.17;61.82
39681;BME280;26327;42.550;23.120;2022-12-07T11:24:19;92349.41;;;15.31;60.91
39681;BME280;26327;42.550;23.120;2022-12-07T11:27:09;92489.66;;;16.12;61.33
39681;BME280;26327;42.550;23.120;2022-12-07T11:32:55;92387.59;;;12.81;72.73
39681;BME280;26327;42.550;23.120;2022-12-07T11:35:03;92457.94;;;13.66;71.21
39681;BME280;26327;42.550;23.120;2022-12-07T11:37:34;92406.56;;;14.54;65.71
39681;BME280;26327;42.550;23.120;2022-12-07T11:40:15;92476.94;;;14.80;65.73
39681;BME280;26327;42.550;23.120;2022-12-07T11:42:49;92464.84;;;14.30;68.73
39681;BME280;26327;42.550;23.120;2022-12-07T11:45:23;92456.81;;;13.93;71.64
39681;BME280;26327;42.550;23.120;2022-12-07T11:51:10;92376.34;;;12.87;74.28
39681;BME280;26327;42.550;23.120;2022-12-07T11:53:52;92324.31;;;13.06;71.34
39681;BME280;26327;42.550;23.120;2022-12-07T11:56:23;92458.66;;;13.41;73.74
39681;BME280;26327;42.550;23.120;2022-12-07T11:58:57;92410.22;;;14.22;69.50
39681;BME280;26327;42.550;23.120;2022-12-07T12:01:38;92442.19;;;13.85;70.43
39681;BME280;26327;42.550;23.120;2022-12-07T12:06:35;92384.75;;;14.10;69.44
39681;BME280;26327;42.550;23.120;2022-12-07T12:09:06;92458.28;;;13.82;71.82
39681;BME280;26327;42.550;23.120;2022-12-07T12:22:23;92388.19;;;11.64;83.03
39681;BME280;26327;42.550;23.120;2022-12-07T12:24:53;92429.13;;;12.10;81.91
39681;BME280;26327;42.550;23.120;2022-12-07T12:27:26;92451.25;;;11.66;82.93
39681;BME280;26327;42.550;23.120;2022-12-07T12:29:59;92433.81;;;11.67;83.86
39681;BME280;26327;42.550;23.120;2022-12-07T12:32:42;92354.94;;;11.47;82.83
39681;BME280;26327;42.550;23.120;2022-12-07T12:35:42;92427.25;;;11.78;81.47
39681;BME280;26327;42.550;23.120;2022-12-07T12:38:26;92408.91;;;12.06;81.16
39681;BME280;26327;42.550;23.120;2022-12-07T12:40:53;92418.13;;;12.35;80.14
39681;BME280;26327;42.550;23.120;2022-12-07T12:43:48;92420.03;;;11.73;82.13
39681;BME280;26327;42.550;23.120;2022-12-07T12:49:38;92351.13;;;11.49;81.54
39681;BME280;26327;42.550;23.120;2022-12-07T12:57:29;92422.22;;;11.76;83.23
39681;BME280;26327;42.550;23.120;2022-12-07T13:02:37;92296.41;;;10.90;82.63
39681;BME280;26327;42.550;23.120;2022-12-07T13:15:43;92433.66;;;11.14;86.27
39681;BME280;26327;42.550;23.120;2022-12-07T13:23:25;92409.47;;;11.27;84.06
39681;BME280;26327;42.550;23.120;2022-12-07T13:28:20;92434.41;;;11.56;81.78
39681;BME280;26327;42.550;23.120;2022-12-07T13:33:34;92442.41;;;10.72;85.46
39681;BME280;26327;42.550;23.120;2022-12-07T13:36:00;92440.97;;;10.97;86.06
39681;BME280;26327;42.550;23.120;2022-12-07T13:38:29;92427.41;;;11.09;83.90
39681;BME280;26327;42.550;23.120;2022-12-07T13:41:15;92441.31;;;10.53;87.14
39681;BME280;26327;42.550;23.120;2022-12-07T13:46:14;92436.06;;;10.47;87.71
39681;BME280;26327;42.550;23.120;2022-12-07T13:48:46;92446.97;;;10.63;86.60
39681;BME280;26327;42.550;23.120;2022-12-07T13:54:00;92388.88;;;10.15;88.30
39681;BME280;26327;42.550;23.120;2022-12-07T13:56:34;92435.25;;;10.81;87.99
39681;BME280;26327;42.550;23.120;2022-12-07T13:59:00;92351.78;;;10.49;85.84
39681;BME280;26327;42.550;23.120;2022-12-07T14:01:26;92372.78;;;10.54;86.38
39681;BME280;26327;42.550;23.120;2022-12-07T14:03:52;92405.06;;;10.80;86.61
39681;BME280;26327;42.550;23.120;2022-12-07T14:06:22;92376.03;;;10.69;85.44
39681;BME280;26327;42.550;23.120;2022-12-07T14:08:51;92361.97;;;10.51;85.54
39681;BME280;26327;42.550;23.120;2022-12-07T14:11:30;92438.75;;;10.60;87.18
39681;BME280;26327;42.550;23.120;2022-12-07T14:13:58;92402.22;;;10.68;86.04
39681;BME280;26327;42.550;23.120;2022-12-07T14:16:32;92432.81;;;10.72;86.25
39681;BME280;26327;42.550;23.120;2022-12-07T14:19:01;92422.31;;;10.53;87.56
39681;BME280;26327;42.550;23.120;2022-12-07T14:21:29;92436.00;;;10.68;86.79
39681;BME280;26327;42.550;23.120;2022-12-07T14:24:10;92382.81;;;10.08;87.82
39681;BME280;26327;42.550;23.120;2022-12-07T14:26:37;92428.53;;;10.30;88.11
39681;BME280;26327;42.550;23.120;2022-12-07T14:31:52;92362.34;;;9.70;89.35
39681;BME280;26327;42.550;23.120;2022-12-07T14:34:22;92429.78;;;10.13;89.88
39681;BME280;26327;42.550;23.120;2022-12-07T14:36:49;92372.66;;;9.85;89.25
39681;BME280;26327;42.550;23.120;2022-12-07T14:39:14;92371.50;;;9.66;90.82
39681;BME280;26327;42.550;23.120;2022-12-07T14:41:40;92429.13;;;10.04;90.04
39681;BME280;26327;42.550;23.120;2022-12-07T14:44:19;92377.19;;;9.55;91.32
39681;BME280;26327;42.550;23.120;2022-12-07T14:46:46;92446.78;;;9.73;92.80
39681;BME280;26327;42.550;23.120;2022-12-07T14:49:11;92431.16;;;9.30;95.25
39681;BME280;26327;42.550;23.120;2022-12-07T14:51:39;92431.03;;;9.53;94.72
39681;BME280;26327;42.550;23.120;2022-12-07T14:54:07;92441.22;;;9.55;95.09
39681;BME280;26327;42.550;23.120;2022-12-07T14:56:38;92401.00;;;9.44;94.28
39681;BME280;26327;42.550;23.120;2022-12-07T14:59:03;92398.69;;;9.13;95.12